الصفحة الرئيسية
METAR-TAF:

METAR-TAF

مطار :

أورسك, روسيا

دائرة عرض: 51-04-18N, خط طول: 058-35-48E, ارتفاع: 277 متر

مراقبة الطقس الحالي

تاريخ ووقت الإصدار 23 دقيقة قبل الساعة 05:00UTC
ريح 19 عقدة من الغرب/الجنوب الغربي
درجة الحرارة 26°درجة مئوية
الرطوبة 61%
ضغط 1004 hPa
الرؤية 10 كم أو أكثر
الغيوم لا تقل 1500 م ولا وجود لمزنة ركامية السحاب الأسود

METAR: UWOR 220500Z 25010MPS CAVOK 26/18 Q1004 R25/CLRD65 NOSIG RMK QFE729/0973

زمن: 10:23 (05:23 UTC)

توقعات

تاريخ ووقت الإصدار 1ساعة و 7 دقيقة قبل الساعة 04:16UTC
التوقعات صالحة من22 الساعة 04 UTC إلى 22 الساعة 12 UTC
ريح 17 عقدة من الجنوب/الجنوب الغربي تتزايد حتى 31 عقدة
الرؤية: 6000 متر
غيوم مفككة على ارتفاع 2000 قدم
مؤقت
من 22 الساعة 04 UTC إلى 22 الساعة 06 UTC
ريح 21 عقدة من الغرب/الجنوب الغربي تتزايد حتى 37 عقدة
أصبح
من 22 الساعة 06 UTC إلى 22 الساعة 08 UTC
ريح 21 عقدة من الغرب تتزايد حتى 37 عقدة

TAF: UWOR 220416Z 2204/2212 21009G16MPS 6000 BKN020 TX27/2209Z TN25/2204Z TEMPO 2204/2206 25011G19MPS BECMG 2206/2208 27011G19MPS

أرصاد الطقس والتوقعات من أكثر من 4000 مطار (تقارير الطقس للمطار METAR والتنبؤ بالطقس بالمطارTAF).

المحطات المتاحة هي النقط الصفراء والحمراء على الخريطة.

حرك المؤشر فوق النقطة لمعرفة اسم المحطة.

ثم انقر لمعرفة أرصاد وتوقعات الطقس.

لتغيير الخارطة: اضغط على الأزرار الخضراء مع رمز الصليب الأسود للتكبير. على الزر الأخضر مع شرطة للتصغير، أو على الأسهم الخضراء للخرائط المجاورة.


METAR-TAF: